Kirwin, Kansas
Current Conditions -  °F | °C
As of 9:53 AM on Friday 19 Dec 2014 (Local Time) from KHLC Reporting Station
Moderate Fog Moderate Fog  
Wind Chill: 29°   Ceiling: 200
Heat Index: 29°   Visibility: 0.25mi
Dew Point: 28°   Wind: 3mph
Humidity: 96%   Direction: 270°W
Pressure: 30.17"   Gusts: NA
Location:  39.67°N, 99.12°W
Report Text: KHLC 191553Z AUTO 27003KT 1/4SM FZFG VV002 M02/M02 A3017 RMK AO2 SLP238 I1000 T10171022
Loading
Personal Weather Stations






























Interactive Weather Map New forecast layout! Learn more

10-Day Weather Forecast

Advertisements
Track Severe Weather on mobile